Chihuahua, México

4:58 PM MDT en Julio 24, 2014 (GMT -0600)
Gen Div P A Roberto Fierro (MMCU) Alt 4462 ft | 28.70 °N, 105.96 °W | Change Station

Current weather conditions updated 14 minutes ago

Scattered Clouds
Nubes dispersas
91 ° F
Sensación térmica 91 ° F
N
12
Viento Variable Viento desde Este

Mañana se prevé una temperatura muy similar a la de hoy.

Hoy
Alta -- | Baja -- ° F
--% Posibilidad de precipitaciones
Ayer
Alta -- | Baja -- ° F
Precip. -- pul
6:20 AM 7:59 PM
Creciente menguante, 4% visible
Presión 30.12 pul
Visibilidad 10.0 Millas
Nubes Baja 3000 ft
Nubes dispersas 9000 ft
Nubes dispersas 20000 ft
Punto de rocío 46 ° F
Humedad 21%
Precipitaciones 0.00 pul
Espesor de la nieve No disponible.
UV 5 de una escala de 12
Polen No disponible.
Calidad del aire No disponible.
Flu Activity No disponible.
METAR MMCU 242244Z 08010KT 10SM FEW030 SCT090 SCT200 33/08 A3012 RMK 8/178 DSNT TCU N NE

More Conditions Fewer Conditions

Presión 30.12 pul
Visibilidad 10.0 Millas
Nubes Baja 3000 ft
Nubes dispersas 9000 ft
Nubes dispersas 20000 ft
Punto de rocío 46 ° F
Humedad 21%
Precipitaciones 0.00 pul
Espesor de la nieve No disponible.
UV 5 de una escala de 12
Polen No disponible.
Calidad del aire No disponible.
Flu Activity No disponible.
METAR MMCU 242244Z 08010KT 10SM FEW030 SCT090 SCT200 33/08 A3012 RMK 8/178 DSNT TCU N NE

More Conditions Fewer Conditions

10-Day Weather Forecast

Almanac

Astronomía

Jul. 24, 2014 Salida Puesta
Hora real 6:20 AM MDT 7:59 PM MDT
Crepúsculo civil 5:54 AM MDT 8:25 PM MDT
Crepúsculo náutico 5:23 AM MDT 8:56 PM MDT
Crepúsculo astronómico 4:50 AM MDT 9:29 PM MDT
Luna 4:29 AM MDT 6:19 PM MDT
Horas de luz 14h 30m
Horas de luz
13h 38m
Tomorrow will be 1m 7s shorter.
Creciente menguante, 4% of the Moon is Illuminated
Hoy
Creciente menguante
Jul 26
Nueva
Ago 3
Cuarto creciente
Ago 10
Luna llena
Ago 17
Cuarto menguante

Extremos de hoy

Máximos del país Bajas del país

Community

WunderPhotos

Upload Photos

1,737,148 ¡fotos cargadas!

Nearby

Calidad del aire

Not available.

Grosos de nieve

Not available.

Actividad de terremotos

Ciudad Distance Mag. Tiempo y dato
No hay informes recientes de la actividad sísmica.
Magnitud mínima muestra es 2,5.

Temperaturas de aguas costeras

Lugar Temperatura
Sin partes meteorológicos de las estaciones

Estaciones meteorológicas cercanas

No hay estaciones meteorológicas personales en esta zona.